Time;durP1;ratioP1;P1;durP2;ratioP2;P2;SDS_P1;SDS_P2;PMS_P1;PMS_P2;Temp;Humidity;BMP_temperature;BMP_pressure;BME280_temperature;BME280_humidity;BME280_pressure;Samples;Min_cycle;Max_cycle;Signal;HPM_P1;HPM_P2
2023/11/10 00:01:33;;;;;;;0.20;0.10;;;;;;;;;;4984405;28;20157;-83
2023/11/10 00:03:59;;;;;;;0.32;0.32;;;;;;;;;;4983773;28;20057;-81
2023/11/10 00:06:25;;;;;;;0.20;0.10;;;;;;;;;;4984130;28;20064;-80
2023/11/10 00:08:53;;;;;;;0.20;0.08;;;;;;;;;;4985093;28;20057;-83
2023/11/10 00:11:19;;;;;;;0.20;0.00;;;;;;;;;;4989378;28;20049;-81
2023/11/10 00:13:45;;;;;;;0.20;0.00;;;;;;;;;;5002075;28;20046;-82
2023/11/10 00:16:11;;;;;;;0.20;0.10;;;;;;;;;;4986890;28;20125;-80
2023/11/10 00:18:37;;;;;;;0.20;0.00;;;;;;;;;;4989438;28;20402;-80
2023/11/10 00:21:03;;;;;;;0.20;0.08;;;;;;;;;;4962052;28;20042;-87
2023/11/10 00:23:29;;;;;;;0.20;0.00;;;;;;;;;;4982910;28;20049;-80
2023/11/10 00:25:55;;;;;;;0.20;0.00;;;;;;;;;;4987782;28;20041;-83
2023/11/10 00:28:22;;;;;;;1.75;1.65;;;;;;;;;;5011292;28;20057;-81
2023/11/10 00:30:48;;;;;;;0.20;0.10;;;;;;;;;;4994693;28;20085;-79
2023/11/10 00:33:14;;;;;;;0.20;0.00;;;;;;;;;;4994823;28;20030;-83
2023/11/10 00:35:40;;;;;;;0.20;0.00;;;;;;;;;;5005330;28;20486;-82
2023/11/10 00:38:06;;;;;;;0.20;0.10;;;;;;;;;;4991748;28;20045;-81
2023/11/10 00:40:32;;;;;;;0.20;0.10;;;;;;;;;;4993130;28;20091;-82
2023/11/10 00:42:58;;;;;;;0.20;0.10;;;;;;;;;;4993332;28;20050;-82
2023/11/10 00:45:24;;;;;;;0.20;0.10;;;;;;;;;;4998836;28;20073;-83
2023/11/10 00:47:50;;;;;;;0.20;0.10;;;;;;;;;;4990308;28;20042;-82
2023/11/10 00:50:16;;;;;;;0.20;0.10;;;;;;;;;;4987669;28;20733;-83
2023/11/10 00:52:42;;;;;;;0.20;0.10;;;;;;;;;;4990177;28;20068;-82
2023/11/10 00:55:10;;;;;;;0.20;0.00;;;;;;;;;;4992792;23;20046;-81
2023/11/10 00:57:45;;;;;;;0.30;0.13;;;;;;;;;;5007674;28;20713;-81
2023/11/10 01:00:15;;;;;;;0.20;0.10;;;;;;;;;;4991275;28;20030;-88
2023/11/10 01:02:44;;;;;;;0.20;0.10;;;;;;;;;;5030138;28;20045;-85
2023/11/10 01:05:13;;;;;;;0.20;0.10;;;;;;;;;;5026706;28;20042;-86
2023/11/10 01:07:46;;;;;;;0.20;0.10;;;;;;;;;;5009379;28;20056;-87
2023/11/10 01:10:32;;;;;;;0.20;0.10;;;;;;;;;;5030171;28;20071;-83
2023/11/10 01:12:58;;;;;;;0.20;0.10;;;;;;;;;;5031075;28;20037;-87
2023/11/10 01:15:24;;;;;;;0.20;0.10;;;;;;;;;;5007777;28;20060;-84
2023/11/10 01:17:53;;;;;;;0.20;0.00;;;;;;;;;;5012999;28;20132;-84
2023/11/10 01:20:23;;;;;;;0.20;0.10;;;;;;;;;;4993108;28;20041;-87
2023/11/10 01:22:52;;;;;;;0.20;0.20;;;;;;;;;;5028448;28;20053;-87
2023/11/10 01:25:18;;;;;;;0.32;0.32;;;;;;;;;;4996616;28;20056;-87
2023/11/10 01:27:50;;;;;;;0.20;0.10;;;;;;;;;;5009798;28;20053;-84
2023/11/10 01:30:19;;;;;;;0.20;0.10;;;;;;;;;;5016444;28;20044;-89
2023/11/10 01:32:46;;;;;;;0.20;0.00;;;;;;;;;;5029519;28;20058;-83
2023/11/10 01:35:12;;;;;;;0.20;0.00;;;;;;;;;;5012136;28;20037;-86
2023/11/10 01:37:41;;;;;;;0.20;0.03;;;;;;;;;;5028932;28;20045;-86
2023/11/10 01:40:11;;;;;;;0.20;0.00;;;;;;;;;;5010767;28;20128;-86
2023/11/10 01:42:40;;;;;;;0.20;0.08;;;;;;;;;;5012269;28;20594;-84
2023/11/10 01:45:18;;;;;;;0.20;0.00;;;;;;;;;;5028535;28;20047;-86
2023/11/10 01:47:45;;;;;;;0.20;0.00;;;;;;;;;;5013473;28;20129;-85
2023/11/10 01:50:18;;;;;;;0.20;0.10;;;;;;;;;;5008442;28;20105;-88
2023/11/10 01:52:53;;;;;;;0.20;0.05;;;;;;;;;;5008533;28;20116;-88
2023/11/10 01:55:22;;;;;;;0.20;0.10;;;;;;;;;;5029510;28;20049;-85
2023/11/10 01:57:48;;;;;;;0.20;0.10;;;;;;;;;;5013013;28;20038;-84
2023/11/10 02:00:20;;;;;;;1.17;0.75;;;;;;;;;;5028687;28;20137;-87
2023/11/10 02:02:52;;;;;;;0.20;0.08;;;;;;;;;;4991980;28;20057;-84
2023/11/10 02:05:18;;;;;;;0.20;0.10;;;;;;;;;;5012233;28;20041;-82
2023/11/10 02:07:44;;;;;;;0.20;0.10;;;;;;;;;;5025992;28;20104;-86
2023/11/10 02:10:31;;;;;;;0.20;0.10;;;;;;;;;;5021275;28;20042;-84
2023/11/10 02:13:00;;;;;;;0.20;0.08;;;;;;;;;;5007660;28;20124;-86
2023/11/10 02:15:34;;;;;;;0.20;0.10;;;;;;;;;;5011061;28;20095;-86
2023/11/10 02:18:02;;;;;;;0.20;0.10;;;;;;;;;;5010404;28;20072;-84
2023/11/10 02:20:37;;;;;;;0.20;0.00;;;;;;;;;;5011044;28;20060;-89
2023/11/10 02:23:08;;;;;;;0.22;0.22;;;;;;;;;;5028986;28;20469;-86
2023/11/10 02:25:38;;;;;;;0.20;0.00;;;;;;;;;;4995388;28;20060;-86
2023/11/10 02:28:24;;;;;;;0.40;0.30;;;;;;;;;;5005957;28;20099;-86
2023/11/10 02:30:50;;;;;;;0.20;0.10;;;;;;;;;;5013909;28;20055;-87
2023/11/10 02:33:22;;;;;;;0.20;0.10;;;;;;;;;;5027622;28;20472;-84
2023/11/10 02:35:49;;;;;;;0.20;0.10;;;;;;;;;;4994941;28;20034;-86
2023/11/10 02:38:16;;;;;;;0.20;0.10;;;;;;;;;;5020128;28;20043;-88
2023/11/10 02:40:45;;;;;;;0.20;0.00;;;;;;;;;;5009324;28;20491;-89
2023/11/10 02:43:11;;;;;;;0.30;0.28;;;;;;;;;;5009931;28;20043;-86
2023/11/10 02:45:37;;;;;;;0.20;0.00;;;;;;;;;;5024635;28;20044;-86
2023/11/10 02:48:07;;;;;;;0.20;0.10;;;;;;;;;;5008663;28;20088;-87
2023/11/10 02:50:33;;;;;;;0.20;0.00;;;;;;;;;;5026656;28;20033;-85
2023/11/10 02:53:22;;;;;;;0.20;0.00;;;;;;;;;;4992972;28;20087;-85
2023/11/10 02:55:48;;;;;;;0.20;0.10;;;;;;;;;;5005452;28;20627;-84
2023/11/10 02:58:17;;;;;;;0.20;0.00;;;;;;;;;;5005914;28;20043;-87
2023/11/10 03:00:43;;;;;;;0.30;0.20;;;;;;;;;;5008736;28;20029;-84
2023/11/10 03:03:19;;;;;;;0.20;0.00;;;;;;;;;;5023865;28;20124;-89
2023/11/10 03:05:53;;;;;;;0.20;0.10;;;;;;;;;;5023899;28;20040;-85
2023/11/10 03:08:25;;;;;;;0.20;0.10;;;;;;;;;;4988996;28;20073;-85
2023/11/10 03:10:51;;;;;;;0.22;0.05;;;;;;;;;;5023286;28;20136;-86
2023/11/10 03:13:17;;;;;;;0.20;0.10;;;;;;;;;;5005957;28;20045;-86
2023/11/10 03:15:43;;;;;;;0.20;0.20;;;;;;;;;;5021349;28;20442;-88
2023/11/10 03:18:09;;;;;;;0.20;0.00;;;;;;;;;;5011467;28;20033;-85
2023/11/10 03:20:39;;;;;;;0.20;0.00;;;;;;;;;;5008471;28;20033;-85
2023/11/10 03:23:08;;;;;;;0.20;0.08;;;;;;;;;;5004232;28;20450;-87
2023/11/10 03:25:34;;;;;;;0.20;0.00;;;;;;;;;;5020736;28;20521;-84
2023/11/10 03:28:26;;;;;;;0.20;0.00;;;;;;;;;;5006522;28;20076;-86
2023/11/10 03:30:55;;;;;;;0.20;0.10;;;;;;;;;;5006184;28;20050;-88
2023/11/10 03:33:47;;;;;;;0.20;0.10;;;;;;;;;;5023607;28;20472;-87
2023/11/10 03:36:19;;;;;;;0.20;0.00;;;;;;;;;;5021600;28;20376;-85
2023/11/10 03:39:04;;;;;;;0.20;0.10;;;;;;;;;;5005082;28;20139;-87
2023/11/10 03:41:46;;;;;;;0.20;0.00;;;;;;;;;;5023792;28;20049;-85
2023/11/10 03:44:15;;;;;;;0.20;0.10;;;;;;;;;;5024947;28;20725;-89
2023/11/10 03:46:47;;;;;;;0.20;0.00;;;;;;;;;;5024082;28;20041;-86
2023/11/10 03:49:16;;;;;;;0.20;0.10;;;;;;;;;;5023622;28;20092;-89
2023/11/10 03:51:47;;;;;;;0.20;0.00;;;;;;;;;;5021731;28;20522;-86
2023/11/10 03:54:25;;;;;;;0.20;0.10;;;;;;;;;;4989405;28;20453;-85
2023/11/10 03:56:57;;;;;;;0.20;0.00;;;;;;;;;;5026273;28;20045;-85
2023/11/10 03:59:26;;;;;;;0.20;0.10;;;;;;;;;;5005567;28;20033;-86
2023/11/10 04:02:01;;;;;;;0.20;0.10;;;;;;;;;;5006149;28;20517;-87
2023/11/10 04:04:33;;;;;;;0.20;0.00;;;;;;;;;;5003926;28;20042;-83
2023/11/10 04:07:08;;;;;;;0.20;0.10;;;;;;;;;;5008177;28;20072;-88
2023/11/10 04:09:41;;;;;;;0.30;0.20;;;;;;;;;;5007970;28;20077;-87
2023/11/10 04:12:07;;;;;;;0.20;0.10;;;;;;;;;;4994675;28;20402;-86
2023/11/10 04:14:40;;;;;;;0.20;0.10;;;;;;;;;;5026872;28;20293;-88
2023/11/10 04:17:08;;;;;;;0.20;0.00;;;;;;;;;;5012013;28;20040;-84
2023/11/10 04:19:38;;;;;;;0.20;0.00;;;;;;;;;;5008980;28;20418;-88
2023/11/10 04:22:04;;;;;;;1.15;0.50;;;;;;;;;;5007724;28;20131;-87
2023/11/10 04:24:34;;;;;;;0.20;0.10;;;;;;;;;;4994093;28;20037;-84
2023/11/10 04:27:03;;;;;;;0.20;0.00;;;;;;;;;;5024717;28;20092;-86
2023/11/10 04:29:39;;;;;;;0.20;0.10;;;;;;;;;;4989422;28;20429;-86
2023/11/10 04:32:06;;;;;;;0.20;0.10;;;;;;;;;;5026316;28;20050;-83
2023/11/10 04:34:32;;;;;;;0.20;0.10;;;;;;;;;;5010327;28;20084;-85
2023/11/10 04:36:58;;;;;;;0.20;0.10;;;;;;;;;;5027253;28;20034;-88
2023/11/10 04:39:32;;;;;;;0.20;0.10;;;;;;;;;;5025715;28;20120;-87
2023/11/10 04:42:01;;;;;;;0.20;0.00;;;;;;;;;;5012314;28;20346;-85
2023/11/10 04:44:37;;;;;;;0.20;0.10;;;;;;;;;;5022099;28;20037;-86
2023/11/10 04:47:09;;;;;;;0.20;0.10;;;;;;;;;;5024109;28;20049;-87
2023/11/10 04:49:39;;;;;;;0.20;0.00;;;;;;;;;;5009882;28;20096;-86
2023/11/10 04:52:08;;;;;;;0.20;0.00;;;;;;;;;;5024048;28;20091;-84
2023/11/10 04:54:41;;;;;;;0.22;0.05;;;;;;;;;;5025381;28;20501;-84
2023/11/10 04:57:10;;;;;;;0.20;0.10;;;;;;;;;;5023212;28;20037;-89
2023/11/10 04:59:41;;;;;;;0.20;0.00;;;;;;;;;;5006346;28;20057;-84
2023/11/10 05:02:15;;;;;;;0.20;0.10;;;;;;;;;;5025966;28;20048;-84
2023/11/10 05:04:41;;;;;;;0.20;0.00;;;;;;;;;;5037829;22;20045;-85
2023/11/10 05:07:08;;;;;;;0.20;0.10;;;;;;;;;;5003060;28;20042;-86
2023/11/10 05:09:34;;;;;;;0.20;0.08;;;;;;;;;;4991462;28;20038;-84
2023/11/10 05:12:00;;;;;;;0.20;0.10;;;;;;;;;;4994151;28;20032;-85
2023/11/10 05:14:27;;;;;;;0.20;0.00;;;;;;;;;;4998543;28;20041;-86
2023/11/10 05:16:53;;;;;;;0.20;0.03;;;;;;;;;;4985552;28;20100;-86
2023/11/10 05:19:22;;;;;;;0.35;0.32;;;;;;;;;;4984323;28;20077;-86
2023/11/10 05:21:47;;;;;;;0.20;0.00;;;;;;;;;;4986501;28;20078;-84
2023/11/10 05:24:19;;;;;;;0.20;0.05;;;;;;;;;;4990168;28;20058;-88
2023/11/10 05:26:53;;;;;;;0.20;0.00;;;;;;;;;;4985862;28;20506;-84
2023/11/10 05:29:31;;;;;;;0.20;0.03;;;;;;;;;;4983152;28;20049;-90
2023/11/10 05:31:58;;;;;;;0.20;0.00;;;;;;;;;;4987472;28;20632;-84
2023/11/10 05:34:24;;;;;;;0.20;0.20;;;;;;;;;;4984105;28;20081;-86
2023/11/10 05:36:56;;;;;;;0.20;0.00;;;;;;;;;;4982240;28;20042;-86
2023/11/10 05:39:28;;;;;;;0.63;0.47;;;;;;;;;;4982762;28;20152;-83
2023/11/10 05:41:54;;;;;;;0.20;0.00;;;;;;;;;;4981037;28;20065;-87
2023/11/10 05:44:29;;;;;;;0.20;0.00;;;;;;;;;;4979608;28;20485;-86
2023/11/10 05:46:55;;;;;;;0.20;0.10;;;;;;;;;;4980424;28;20176;-84
2023/11/10 05:49:21;;;;;;;0.20;0.20;;;;;;;;;;4973698;28;20042;-85
2023/11/10 05:51:48;;;;;;;0.20;0.00;;;;;;;;;;4990909;28;20590;-86
2023/11/10 05:54:15;;;;;;;0.20;0.00;;;;;;;;;;4987571;28;21820;-86
2023/11/10 05:56:46;;;;;;;0.20;0.00;;;;;;;;;;4972636;28;20034;-85
2023/11/10 05:59:37;;;;;;;0.28;0.25;;;;;;;;;;4975470;28;20046;-85
2023/11/10 06:02:04;;;;;;;0.20;0.00;;;;;;;;;;4987501;28;20045;-85
2023/11/10 06:04:30;;;;;;;0.20;0.00;;;;;;;;;;4983111;28;20129;-85
2023/11/10 06:06:56;;;;;;;0.20;0.10;;;;;;;;;;4984889;28;20125;-81
2023/11/10 06:09:22;;;;;;;0.20;0.10;;;;;;;;;;4981160;28;20125;-82
2023/11/10 06:11:51;;;;;;;0.20;0.10;;;;;;;;;;4983544;28;20526;-84
2023/11/10 06:14:17;;;;;;;0.20;0.00;;;;;;;;;;4984499;28;20050;-84
2023/11/10 06:16:47;;;;;;;0.20;0.00;;;;;;;;;;4980992;28;20092;-84
2023/11/10 06:19:15;;;;;;;0.20;0.17;;;;;;;;;;4971322;28;20064;-85
2023/11/10 06:21:41;;;;;;;0.20;0.03;;;;;;;;;;4984169;28;20030;-86
2023/11/10 06:24:08;;;;;;;0.20;0.10;;;;;;;;;;4984563;28;20040;-85
2023/11/10 06:26:35;;;;;;;0.20;0.10;;;;;;;;;;4999140;28;20068;-84
2023/11/10 06:29:03;;;;;;;0.20;0.05;;;;;;;;;;4967954;28;20069;-85
2023/11/10 06:31:29;;;;;;;0.20;0.05;;;;;;;;;;4972626;28;20406;-85
2023/11/10 06:33:55;;;;;;;0.20;0.10;;;;;;;;;;4989475;28;20037;-85
2023/11/10 06:36:21;;;;;;;0.20;0.10;;;;;;;;;;4983391;28;20035;-85
2023/11/10 06:38:47;;;;;;;0.20;0.10;;;;;;;;;;4981741;28;20034;-85
2023/11/10 06:41:14;;;;;;;0.20;0.10;;;;;;;;;;4987227;28;20050;-85
2023/11/10 06:43:45;;;;;;;0.20;0.00;;;;;;;;;;4973971;28;20339;-88
2023/11/10 06:46:11;;;;;;;0.20;0.10;;;;;;;;;;4982256;28;20351;-84
2023/11/10 06:48:38;;;;;;;0.20;0.05;;;;;;;;;;4984714;28;20049;-84
2023/11/10 06:51:04;;;;;;;0.20;0.00;;;;;;;;;;4982746;28;20049;-83
2023/11/10 06:53:39;;;;;;;0.20;0.10;;;;;;;;;;4986355;28;20046;-86
2023/11/10 06:56:05;;;;;;;0.20;0.10;;;;;;;;;;5000176;22;20533;-81
2023/11/10 06:58:31;;;;;;;0.20;0.10;;;;;;;;;;4983399;28;20064;-81
2023/11/10 07:00:58;;;;;;;0.20;0.00;;;;;;;;;;4989072;28;20030;-81
2023/11/10 07:03:25;;;;;;;0.20;0.10;;;;;;;;;;4991827;28;20049;-83
2023/11/10 07:05:51;;;;;;;0.20;0.00;;;;;;;;;;4990199;28;20128;-80
2023/11/10 07:08:20;;;;;;;0.20;0.10;;;;;;;;;;4977560;28;20050;-82
2023/11/10 07:10:51;;;;;;;0.30;0.17;;;;;;;;;;4970841;28;20077;-83
2023/11/10 07:13:18;;;;;;;0.20;0.00;;;;;;;;;;4978068;28;20066;-83
2023/11/10 07:15:45;;;;;;;0.20;0.10;;;;;;;;;;4989393;28;20038;-81
2023/11/10 07:18:11;;;;;;;0.25;0.10;;;;;;;;;;4974203;28;20513;-84
2023/11/10 07:20:42;;;;;;;0.20;0.20;;;;;;;;;;4971220;28;20052;-82
2023/11/10 07:23:08;;;;;;;0.20;0.10;;;;;;;;;;4988958;28;20507;-82
2023/11/10 07:25:34;;;;;;;0.20;0.10;;;;;;;;;;4987335;28;20526;-79
2023/11/10 07:28:00;;;;;;;0.20;0.15;;;;;;;;;;4989247;28;20054;-82
2023/11/10 07:30:28;;;;;;;0.20;0.00;;;;;;;;;;4970818;28;20041;-81
2023/11/10 07:32:54;;;;;;;0.63;0.30;;;;;;;;;;4986976;28;20039;-81
2023/11/10 07:35:21;;;;;;;0.20;0.05;;;;;;;;;;4987497;28;20097;-83
2023/11/10 07:37:47;;;;;;;0.20;0.10;;;;;;;;;;4984927;28;20061;-84
2023/11/10 07:40:17;;;;;;;0.30;0.20;;;;;;;;;;4975348;28;20089;-83
2023/11/10 07:42:44;;;;;;;0.20;0.10;;;;;;;;;;4974302;28;20096;-82
2023/11/10 07:45:14;;;;;;;0.20;0.03;;;;;;;;;;4973514;28;20446;-83
2023/11/10 07:47:41;;;;;;;0.20;0.00;;;;;;;;;;4981345;28;20109;-82
2023/11/10 07:50:07;;;;;;;0.20;0.10;;;;;;;;;;4990436;28;20046;-83
2023/11/10 07:52:33;;;;;;;0.20;0.10;;;;;;;;;;4988241;28;20385;-81
2023/11/10 07:54:59;;;;;;;0.20;0.10;;;;;;;;;;4991275;28;20116;-82
2023/11/10 07:57:29;;;;;;;0.20;0.10;;;;;;;;;;4989897;28;20088;-81
2023/11/10 07:59:55;;;;;;;0.20;0.00;;;;;;;;;;4986960;28;20057;-81
2023/11/10 08:02:21;;;;;;;0.20;0.10;;;;;;;;;;4987918;28;20517;-81
2023/11/10 08:04:47;;;;;;;0.20;0.10;;;;;;;;;;4974870;28;20048;-83
2023/11/10 08:07:13;;;;;;;0.20;0.10;;;;;;;;;;4973670;28;20046;-82
2023/11/10 08:09:39;;;;;;;0.20;0.08;;;;;;;;;;4984379;28;20049;-83
2023/11/10 08:12:05;;;;;;;0.20;0.00;;;;;;;;;;4981940;28;20046;-82
2023/11/10 08:14:31;;;;;;;0.30;0.17;;;;;;;;;;4993977;28;20045;-84
2023/11/10 08:16:57;;;;;;;0.20;0.10;;;;;;;;;;4987074;28;20247;-82
2023/11/10 08:19:23;;;;;;;0.20;0.00;;;;;;;;;;4985106;28;20072;-82
2023/11/10 08:21:49;;;;;;;0.20;0.00;;;;;;;;;;4986740;28;20484;-81
2023/11/10 08:24:15;;;;;;;0.47;0.47;;;;;;;;;;4986402;28;20042;-82
2023/11/10 08:26:42;;;;;;;0.20;0.10;;;;;;;;;;4987857;28;20510;-83
2023/11/10 08:29:09;;;;;;;0.20;0.10;;;;;;;;;;4991915;28;20038;-83
2023/11/10 08:31:35;;;;;;;0.20;0.10;;;;;;;;;;4974353;28;20038;-80
2023/11/10 08:34:01;;;;;;;0.20;0.10;;;;;;;;;;4986963;28;20486;-83
2023/11/10 08:36:32;;;;;;;0.20;0.20;;;;;;;;;;4988942;28;20037;-84
2023/11/10 08:38:58;;;;;;;0.20;0.10;;;;;;;;;;4985493;28;20387;-83
2023/11/10 08:41:24;;;;;;;0.20;0.10;;;;;;;;;;4986727;28;20092;-82
2023/11/10 08:43:50;;;;;;;0.20;0.00;;;;;;;;;;4984403;28;20096;-84
2023/11/10 08:46:17;;;;;;;0.20;0.10;;;;;;;;;;4972491;28;20049;-84
2023/11/10 08:48:43;;;;;;;0.20;0.10;;;;;;;;;;4989701;28;21569;-83
2023/11/10 08:51:10;;;;;;;0.20;0.10;;;;;;;;;;4969502;28;20045;-81
2023/11/10 08:53:37;;;;;;;0.20;0.15;;;;;;;;;;4966796;28;20034;-80
2023/11/10 08:56:04;;;;;;;0.20;0.10;;;;;;;;;;4992300;28;20034;-82
2023/11/10 08:58:30;;;;;;;0.60;0.50;;;;;;;;;;4967600;28;20048;-81
2023/11/10 09:00:57;;;;;;;0.20;0.00;;;;;;;;;;4977169;28;20046;-81
2023/11/10 09:03:23;;;;;;;0.20;0.10;;;;;;;;;;4973091;28;20039;-83
2023/11/10 09:05:49;;;;;;;0.20;0.00;;;;;;;;;;4975618;28;20048;-82
2023/11/10 09:08:16;;;;;;;0.20;0.00;;;;;;;;;;4991501;28;20034;-82
2023/11/10 09:10:42;;;;;;;0.20;0.10;;;;;;;;;;4977908;28;20037;-81
2023/11/10 09:13:11;;;;;;;0.20;0.10;;;;;;;;;;4985231;28;20505;-83
2023/11/10 09:15:38;;;;;;;0.20;0.00;;;;;;;;;;4995116;28;20096;-82
2023/11/10 09:18:04;;;;;;;0.20;0.20;;;;;;;;;;4989936;28;20069;-82
2023/11/10 09:20:30;;;;;;;0.20;0.10;;;;;;;;;;4982933;28;20477;-82
2023/11/10 09:22:56;;;;;;;0.20;0.10;;;;;;;;;;4988417;28;20526;-83
2023/11/10 09:25:23;;;;;;;0.20;0.03;;;;;;;;;;4973594;28;20065;-83
2023/11/10 09:27:49;;;;;;;0.20;0.00;;;;;;;;;;4969574;28;20073;-85
2023/11/10 09:30:15;;;;;;;0.30;0.30;;;;;;;;;;4980661;28;20507;-83
2023/11/10 09:32:41;;;;;;;0.20;0.08;;;;;;;;;;4982718;28;20057;-85
2023/11/10 09:35:07;;;;;;;0.20;0.10;;;;;;;;;;4971692;28;20089;-82
2023/11/10 09:37:34;;;;;;;0.20;0.10;;;;;;;;;;4967519;28;20042;-85
2023/11/10 09:40:00;;;;;;;0.20;0.00;;;;;;;;;;4973782;28;20522;-82
2023/11/10 09:42:26;;;;;;;0.20;0.10;;;;;;;;;;4983307;28;20514;-82
2023/11/10 09:44:53;;;;;;;0.20;0.13;;;;;;;;;;4969541;28;20038;-85
2023/11/10 09:47:23;;;;;;;0.20;0.10;;;;;;;;;;4986306;28;20070;-83
2023/11/10 09:49:50;;;;;;;0.20;0.10;;;;;;;;;;4990651;28;20157;-83
2023/11/10 09:52:16;;;;;;;0.20;0.10;;;;;;;;;;4974389;28;20041;-85
2023/11/10 09:54:45;;;;;;;0.20;0.08;;;;;;;;;;4969390;28;20058;-82
2023/11/10 09:57:12;;;;;;;0.20;0.10;;;;;;;;;;4988983;28;20038;-84
2023/11/10 09:59:39;;;;;;;0.20;0.20;;;;;;;;;;4985976;28;20653;-83
2023/11/10 10:02:05;;;;;;;0.20;0.05;;;;;;;;;;4976031;28;20052;-82
2023/11/10 10:04:31;;;;;;;0.20;0.00;;;;;;;;;;4988246;28;20389;-83
2023/11/10 10:06:57;;;;;;;0.20;0.03;;;;;;;;;;4984866;28;20137;-82
2023/11/10 10:09:26;;;;;;;0.20;0.00;;;;;;;;;;4992036;28;20046;-83
2023/11/10 10:11:54;;;;;;;0.57;0.57;;;;;;;;;;4981969;28;20084;-81
2023/11/10 10:14:20;;;;;;;0.20;0.10;;;;;;;;;;4976117;28;20124;-82
2023/11/10 10:16:55;;;;;;;0.20;0.10;;;;;;;;;;4988692;28;20044;-81
2023/11/10 10:19:23;;;;;;;0.20;0.10;;;;;;;;;;4992555;28;20050;-82
2023/11/10 10:21:49;;;;;;;0.20;0.00;;;;;;;;;;4976585;28;20037;-81
2023/11/10 10:24:15;;;;;;;0.20;0.10;;;;;;;;;;4987081;28;20045;-85
2023/11/10 10:26:41;;;;;;;0.20;0.10;;;;;;;;;;4971672;28;20040;-85
2023/11/10 10:29:08;;;;;;;0.20;0.03;;;;;;;;;;4988208;28;20120;-81
2023/11/10 10:31:34;;;;;;;0.20;0.00;;;;;;;;;;4989087;28;20498;-82
2023/11/10 10:34:04;;;;;;;0.20;0.00;;;;;;;;;;5006878;28;20126;-84
2023/11/10 10:36:38;;;;;;;0.20;0.00;;;;;;;;;;4990453;28;20131;-85
2023/11/10 10:39:10;;;;;;;0.20;0.10;;;;;;;;;;4990810;28;20131;-83
2023/11/10 10:41:37;;;;;;;0.20;0.00;;;;;;;;;;4969108;28;20029;-84
2023/11/10 10:44:04;;;;;;;0.20;0.00;;;;;;;;;;4988352;28;20096;-84
2023/11/10 10:46:35;;;;;;;0.20;0.00;;;;;;;;;;4991909;28;20595;-84
2023/11/10 10:49:03;;;;;;;0.20;0.03;;;;;;;;;;4995549;28;20038;-82
2023/11/10 10:51:31;;;;;;;0.20;0.10;;;;;;;;;;4994133;28;20038;-86
2023/11/10 10:53:57;;;;;;;0.20;0.05;;;;;;;;;;4976710;28;20042;-82
2023/11/10 10:56:24;;;;;;;0.20;0.00;;;;;;;;;;4995873;28;20038;-85
2023/11/10 10:58:50;;;;;;;0.20;0.10;;;;;;;;;;4979569;28;20045;-83
2023/11/10 11:01:16;;;;;;;0.20;0.03;;;;;;;;;;4986762;28;20110;-84
2023/11/10 11:04:01;;;;;;;0.20;0.10;;;;;;;;;;4992338;28;20096;-87
2023/11/10 11:06:36;;;;;;;0.20;0.00;;;;;;;;;;4987090;28;20121;-84
2023/11/10 11:09:06;;;;;;;0.20;0.00;;;;;;;;;;5005684;28;20136;-83
2023/11/10 11:11:36;;;;;;;0.20;0.00;;;;;;;;;;4970914;28;20081;-85
2023/11/10 11:14:02;;;;;;;0.20;0.05;;;;;;;;;;5000953;28;20038;-80
2023/11/10 11:16:28;;;;;;;0.20;0.00;;;;;;;;;;4989328;28;20069;-84
2023/11/10 11:18:58;;;;;;;0.20;0.00;;;;;;;;;;4987595;28;20037;-84
2023/11/10 11:21:24;;;;;;;0.20;0.00;;;;;;;;;;4984688;28;20446;-83
2023/11/10 11:23:51;;;;;;;0.20;0.08;;;;;;;;;;5006970;28;20045;-85
2023/11/10 11:26:17;;;;;;;0.20;0.00;;;;;;;;;;5000418;28;20550;-83
2023/11/10 11:28:43;;;;;;;0.20;0.17;;;;;;;;;;4976909;28;20092;-81
2023/11/10 11:31:10;;;;;;;0.20;0.10;;;;;;;;;;4986322;28;20487;-83
2023/11/10 11:33:46;;;;;;;0.20;0.10;;;;;;;;;;5009029;28;20413;-83
2023/11/10 11:36:16;;;;;;;0.20;0.00;;;;;;;;;;4988585;28;20100;-79
2023/11/10 11:38:43;;;;;;;0.20;0.10;;;;;;;;;;4987218;28;20034;-81
2023/11/10 11:41:15;;;;;;;;;;;;;;;;;;4972661;28;20037;-84
2023/11/10 11:43:49;;;;;;;0.20;0.10;;;;;;;;;;4990530;28;19964;-81
2023/11/10 11:46:15;;;;;;;0.20;0.10;;;;;;;;;;5002013;28;20050;-81
2023/11/10 11:48:41;;;;;;;0.20;0.00;;;;;;;;;;4983154;28;20049;-83
2023/11/10 11:51:07;;;;;;;0.20;0.10;;;;;;;;;;4988485;28;20034;-81
2023/11/10 11:53:37;;;;;;;0.20;0.00;;;;;;;;;;4982191;28;20044;-82
2023/11/10 11:56:03;;;;;;;0.20;0.10;;;;;;;;;;4973449;28;20104;-82
2023/11/10 11:58:29;;;;;;;0.20;0.10;;;;;;;;;;4982431;28;20065;-83
2023/11/10 12:00:55;;;;;;;0.20;0.10;;;;;;;;;;4986308;28;20042;-84
2023/11/10 12:03:22;;;;;;;0.20;0.10;;;;;;;;;;4983547;28;20446;-84
2023/11/10 12:05:48;;;;;;;0.20;0.10;;;;;;;;;;5000882;28;20038;-82
2023/11/10 12:08:18;;;;;;;0.20;0.08;;;;;;;;;;4993093;28;20049;-79
2023/11/10 12:10:47;;;;;;;0.20;0.10;;;;;;;;;;4978178;28;20042;-81
2023/11/10 12:13:13;;;;;;;0.20;0.13;;;;;;;;;;4974436;28;20046;-83
2023/11/10 12:15:41;;;;;;;0.20;0.10;;;;;;;;;;4989256;28;20514;-82
2023/11/10 12:18:08;;;;;;;0.20;0.10;;;;;;;;;;4981667;28;20510;-81
2023/11/10 12:20:35;;;;;;;0.20;0.00;;;;;;;;;;4978583;28;20065;-83
2023/11/10 12:23:04;;;;;;;0.20;0.00;;;;;;;;;;4996115;28;20038;-81
2023/11/10 12:25:35;;;;;;;0.20;0.10;;;;;;;;;;4979819;28;20461;-84
2023/11/10 12:28:01;;;;;;;0.20;0.10;;;;;;;;;;5000072;28;20137;-83
2023/11/10 12:30:27;;;;;;;0.20;0.00;;;;;;;;;;4987726;28;20038;-81
2023/11/10 12:32:53;;;;;;;0.20;0.10;;;;;;;;;;4982649;28;20566;-82
2023/11/10 12:35:21;;;;;;;0.20;0.00;;;;;;;;;;4983391;28;20045;-82
2023/11/10 12:37:47;;;;;;;0.20;0.10;;;;;;;;;;4974755;28;20088;-83
2023/11/10 12:40:17;;;;;;;0.20;0.00;;;;;;;;;;4981738;28;20084;-82
2023/11/10 12:42:43;;;;;;;0.20;0.00;;;;;;;;;;4991700;28;20042;-84
2023/11/10 12:45:13;;;;;;;0.20;0.10;;;;;;;;;;4993186;28;20057;-84
2023/11/10 12:47:42;;;;;;;0.20;0.10;;;;;;;;;;4990582;28;20338;-83
2023/11/10 12:50:13;;;;;;;0.20;0.10;;;;;;;;;;4989690;28;20522;-82
2023/11/10 12:52:39;;;;;;;0.20;0.10;;;;;;;;;;4989748;28;20582;-83
2023/11/10 12:55:06;;;;;;;0.20;0.10;;;;;;;;;;4989637;28;20042;-81
2023/11/10 12:57:32;;;;;;;0.20;0.10;;;;;;;;;;5015936;22;20034;-82
2023/11/10 13:00:15;;;;;;;0.20;0.10;;;;;;;;;;4989203;28;20481;-85
2023/11/10 13:02:44;;;;;;;0.20;0.00;;;;;;;;;;5002170;28;20413;-82
2023/11/10 13:05:14;;;;;;;0.30;0.20;;;;;;;;;;4995538;28;20037;-84
2023/11/10 13:07:40;;;;;;;0.20;0.10;;;;;;;;;;4993063;28;20053;-82
2023/11/10 13:10:07;;;;;;;0.20;0.10;;;;;;;;;;5012496;28;20119;-84
2023/11/10 13:12:36;;;;;;;0.30;0.30;;;;;;;;;;4994266;28;20049;-82
2023/11/10 13:15:03;;;;;;;0.20;0.10;;;;;;;;;;5002235;28;20501;-82
2023/11/10 13:17:29;;;;;;;0.20;0.10;;;;;;;;;;4992419;28;20052;-82
2023/11/10 13:19:55;;;;;;;0.20;0.00;;;;;;;;;;4985887;28;20037;-82
2023/11/10 13:22:21;;;;;;;0.22;0.08;;;;;;;;;;4992760;28;20103;-82
2023/11/10 13:24:50;;;;;;;0.20;0.20;;;;;;;;;;4989538;28;20513;-83
2023/11/10 13:27:16;;;;;;;0.20;0.08;;;;;;;;;;4990014;28;20045;-85
2023/11/10 13:29:43;;;;;;;0.20;0.00;;;;;;;;;;4992795;28;20128;-85
2023/11/10 13:32:09;;;;;;;0.20;0.03;;;;;;;;;;4985858;28;20057;-83
2023/11/10 13:34:35;;;;;;;0.20;0.05;;;;;;;;;;4987092;28;20057;-83
2023/11/10 13:37:05;;;;;;;0.20;0.10;;;;;;;;;;4982943;28;20083;-85
2023/11/10 13:39:31;;;;;;;0.20;0.10;;;;;;;;;;4983267;28;20072;-82
2023/11/10 13:41:57;;;;;;;0.20;0.10;;;;;;;;;;5003629;28;20037;-84
2023/11/10 13:44:23;;;;;;;0.20;0.00;;;;;;;;;;4996084;28;20038;-83
2023/11/10 13:46:49;;;;;;;0.20;0.10;;;;;;;;;;4992463;28;20227;-83
2023/11/10 13:49:16;;;;;;;0.20;0.10;;;;;;;;;;5004485;28;20128;-83
2023/11/10 13:51:42;;;;;;;0.20;0.10;;;;;;;;;;4995358;28;20075;-83
2023/11/10 13:54:08;;;;;;;0.20;0.00;;;;;;;;;;4984257;28;20049;-83
2023/11/10 13:56:34;;;;;;;0.20;0.08;;;;;;;;;;5004128;28;20087;-86
2023/11/10 13:59:06;;;;;;;0.20;0.05;;;;;;;;;;5004763;28;20037;-83
2023/11/10 14:01:32;;;;;;;0.20;0.00;;;;;;;;;;4993838;28;20088;-83
2023/11/10 14:03:59;;;;;;;0.20;0.10;;;;;;;;;;4991541;28;20322;-84
2023/11/10 14:06:31;;;;;;;0.20;0.00;;;;;;;;;;4990084;28;20041;-84
2023/11/10 14:09:00;;;;;;;0.20;0.10;;;;;;;;;;4990652;28;20033;-87
2023/11/10 14:11:26;;;;;;;0.20;0.10;;;;;;;;;;4996227;28;20045;-84
2023/11/10 14:13:52;;;;;;;0.20;0.00;;;;;;;;;;4985614;28;20434;-83
2023/11/10 14:16:19;;;;;;;0.20;0.00;;;;;;;;;;4985331;28;20358;-85
2023/11/10 14:18:45;;;;;;;0.47;0.47;;;;;;;;;;4989880;28;20057;-83
2023/11/10 14:21:14;;;;;;;0.20;0.00;;;;;;;;;;4987477;28;20541;-85
2023/11/10 14:23:43;;;;;;;0.20;0.00;;;;;;;;;;5023646;28;20047;-86
2023/11/10 14:26:10;;;;;;;0.20;0.10;;;;;;;;;;5009447;28;20128;-82
2023/11/10 14:28:36;;;;;;;0.20;0.10;;;;;;;;;;5010536;28;20061;-83
2023/11/10 14:31:02;;;;;;;0.20;0.10;;;;;;;;;;5013718;28;20620;-83
2023/11/10 14:33:29;;;;;;;0.20;0.10;;;;;;;;;;5003097;28;20621;-82
2023/11/10 14:35:55;;;;;;;0.20;0.00;;;;;;;;;;5025941;28;20056;-83
2023/11/10 14:38:21;;;;;;;0.20;0.10;;;;;;;;;;5027428;28;20037;-86
2023/11/10 14:40:48;;;;;;;0.20;0.00;;;;;;;;;;5009687;28;20033;-85
2023/11/10 14:43:19;;;;;;;0.20;0.10;;;;;;;;;;5010862;28;20044;-83
2023/11/10 14:45:47;;;;;;;0.20;0.10;;;;;;;;;;5012897;28;20842;-85
2023/11/10 14:48:13;;;;;;;0.20;0.10;;;;;;;;;;5005013;28;20125;-83
2023/11/10 14:50:41;;;;;;;0.30;0.10;;;;;;;;;;5030714;28;20457;-82